Time;durP1;ratioP1;P1;durP2;ratioP2;P2;SDS_P1;SDS_P2;PMS_P1;PMS_P2;Temp;Humidity;BMP_temperature;BMP_pressure;BME280_temperature;BME280_humidity;BME280_pressure;Samples;Min_cycle;Max_cycle;Signal;HPM_P1;HPM_P2
2022/11/02 00:01:18;;;;;;;4.38;1.13;;;;;;;14.62;37.25;101214.44;4923641;29;20047;-71
2022/11/02 00:03:46;;;;;;;4.45;1.15;;;;;;;14.60;36.68;101210.13;4917999;29;20360;-71
2022/11/02 00:06:14;;;;;;;3.35;1.00;;;;;;;14.62;36.66;101217.19;4926566;29;20752;-71
2022/11/02 00:08:42;;;;;;;3.60;1.17;;;;;;;14.62;36.65;101213.56;4928061;29;20099;-70
2022/11/02 00:11:11;;;;;;;5.28;1.00;;;;;;;14.66;37.16;101209.50;4917656;28;20059;-71
2022/11/02 00:13:39;;;;;;;5.82;1.40;;;;;;;14.64;36.90;101208.78;4929596;28;20051;-71
2022/11/02 00:16:10;;;;;;;4.43;1.20;;;;;;;14.66;37.09;101213.13;4931132;29;20103;-71
2022/11/02 00:18:38;;;;;;;4.78;1.10;;;;;;;14.65;36.84;101225.16;4933058;29;20466;-71
2022/11/02 00:21:06;;;;;;;2.97;1.08;;;;;;;14.66;36.97;101210.38;4930660;29;20470;-71
2022/11/02 00:23:34;;;;;;;3.90;1.10;;;;;;;14.67;36.98;101216.75;4929224;29;20773;-70
2022/11/02 00:26:02;;;;;;;4.35;1.45;;;;;;;14.67;37.54;101214.00;4931938;29;20705;-71
2022/11/02 00:28:32;;;;;;;5.68;1.50;;;;;;;14.68;37.34;101219.34;4930617;29;20087;-70
2022/11/02 00:31:00;;;;;;;5.35;1.67;;;;;;;14.67;37.52;101209.38;4929916;29;20094;-71
2022/11/02 00:33:27;;;;;;;4.63;1.35;;;;;;;14.66;37.79;101210.38;4932255;29;20067;-70
2022/11/02 00:35:55;;;;;;;3.75;1.38;;;;;;;14.68;37.92;101207.47;4930548;29;20552;-70
2022/11/02 00:38:23;;;;;;;4.85;1.35;;;;;;;14.68;37.76;101210.22;4921906;29;20051;-70
2022/11/02 00:40:51;;;;;;;4.70;1.20;;;;;;;14.67;37.44;101206.59;4930010;29;20043;-70
2022/11/02 00:43:19;;;;;;;3.40;1.10;;;;;;;14.68;37.96;101218.50;4928879;29;20044;-71
2022/11/02 00:45:48;;;;;;;3.33;1.08;;;;;;;14.69;37.84;101217.44;4923957;29;20040;-70
2022/11/02 00:48:16;;;;;;;3.63;1.23;;;;;;;14.67;37.86;101219.50;4940381;28;20063;-72
2022/11/02 00:50:44;;;;;;;3.55;1.20;;;;;;;14.67;37.66;101225.03;4932504;29;20099;-71
2022/11/02 00:53:12;;;;;;;6.05;1.35;;;;;;;14.67;37.65;101225.03;4939345;28;20075;-71
2022/11/02 00:55:50;;;;;;;5.03;1.50;;;;;;;14.67;37.97;101223.13;4940099;28;20040;-71
2022/11/02 00:58:18;;;;;;;3.13;1.08;;;;;;;14.67;37.85;101216.75;4925899;29;20048;-70
2022/11/02 01:00:46;;;;;;;4.32;1.15;;;;;;;14.67;37.63;101222.28;4971815;23;20036;-85
2022/11/02 01:03:15;;;;;;;3.30;1.27;;;;;;;14.68;37.48;101222.09;4943609;29;20136;-83
2022/11/02 01:05:43;;;;;;;2.70;1.05;;;;;;;14.66;38.03;101226.03;4956414;28;20447;-83
2022/11/02 01:08:11;;;;;;;3.95;1.10;;;;;;;14.66;38.03;101226.03;4962310;28;20500;-84
2022/11/02 01:10:39;;;;;;;3.85;1.23;;;;;;;14.67;37.77;101225.03;4946954;28;20120;-84
2022/11/02 01:13:14;;;;;;;3.63;1.40;;;;;;;14.65;38.00;101233.44;4935961;29;20130;-84
2022/11/02 01:15:42;;;;;;;3.80;1.17;;;;;;;14.65;37.62;101236.19;4920560;29;20048;-84
2022/11/02 01:18:10;;;;;;;4.03;1.20;;;;;;;14.66;37.93;101228.78;4949539;28;20425;-83
2022/11/02 01:20:39;;;;;;;3.35;1.30;;;;;;;14.67;37.73;101244.31;4931642;29;20039;-83
2022/11/02 01:23:07;;;;;;;3.90;1.17;;;;;;;14.65;37.83;101232.56;4949747;28;20483;-83
2022/11/02 01:25:35;;;;;;;3.88;1.08;;;;;;;14.65;37.83;101229.81;4938010;29;20054;-83
2022/11/02 01:28:03;;;;;;;4.82;1.08;;;;;;;14.64;38.04;101225.31;4935916;29;20483;-84
2022/11/02 01:30:32;;;;;;;4.15;1.23;;;;;;;14.63;37.95;101224.44;4950361;28;20657;-83
2022/11/02 01:33:00;;;;;;;7.30;1.40;;;;;;;14.64;38.03;101228.94;4936836;29;20577;-83
2022/11/02 01:35:28;;;;;;;2.72;0.90;;;;;;;14.64;37.57;101219.81;4934995;29;20047;-84
2022/11/02 01:37:57;;;;;;;3.95;1.23;;;;;;;14.65;37.79;101224.31;4943976;29;20095;-83
2022/11/02 01:40:25;;;;;;;3.15;1.10;;;;;;;14.64;37.98;101228.06;4935536;29;20416;-83
2022/11/02 01:42:53;;;;;;;4.00;1.00;;;;;;;14.64;38.01;101230.81;4941033;28;20144;-84
2022/11/02 01:45:21;;;;;;;3.03;1.00;;;;;;;14.65;37.77;101229.81;4942720;29;20042;-84
2022/11/02 01:47:49;;;;;;;3.35;1.15;;;;;;;14.65;37.88;101229.81;4934804;29;20062;-84
2022/11/02 01:50:20;;;;;;;2.97;1.15;;;;;;;14.67;38.21;101236.03;4936918;29;20036;-84
2022/11/02 01:52:50;;;;;;;5.20;1.27;;;;;;;14.66;38.15;101237.06;4939846;29;20111;-84
2022/11/02 01:55:22;;;;;;;4.18;1.40;;;;;;;14.67;38.17;101236.91;4955198;28;20144;-83
2022/11/02 01:57:56;;;;;;;5.30;1.13;;;;;;;14.66;38.03;101231.53;4956331;28;20079;-84
2022/11/02 02:00:24;;;;;;;3.45;1.05;;;;;;;14.65;38.15;101230.69;4940472;29;20166;-84
2022/11/02 02:02:56;;;;;;;3.65;1.40;;;;;;;14.67;37.90;101234.16;4927511;29;20045;-84
2022/11/02 02:05:25;;;;;;;2.40;1.10;;;;;;;14.65;37.98;101233.44;4951130;29;20043;-84
2022/11/02 02:07:55;;;;;;;3.78;1.40;;;;;;;14.65;37.84;101225.16;4946748;29;20079;-84
2022/11/02 02:10:24;;;;;;;5.68;1.30;;;;;;;14.68;38.06;101232.28;4943917;29;20055;-84
2022/11/02 02:12:52;;;;;;;3.90;1.33;;;;;;;14.67;37.78;101234.16;4934640;29;20151;-83
2022/11/02 02:15:24;;;;;;;5.38;1.35;;;;;;;14.69;37.95;101236.72;4930095;29;20713;-84
2022/11/02 02:17:58;;;;;;;4.10;1.17;;;;;;;14.68;37.66;101235.88;4939115;29;20447;-84
2022/11/02 02:20:46;;;;;;;5.38;1.17;;;;;;;14.70;38.05;101230.22;4940406;29;20471;-84
2022/11/02 02:23:33;;;;;;;4.30;1.20;;;;;;;14.69;38.15;101226.59;4940144;29;20075;-84
2022/11/02 02:26:45;;;;;;;3.15;1.10;;;;;;;14.64;38.14;101228.06;4947172;28;20483;-84
2022/11/02 02:29:20;;;;;;;2.75;1.15;;;;;;;14.67;38.27;101230.53;4926970;29;20043;-84
2022/11/02 02:31:57;;;;;;;3.45;1.33;;;;;;;14.69;37.85;101231.22;4948136;28;20051;-84
2022/11/02 02:34:34;;;;;;;3.33;1.25;;;;;;;14.68;38.22;101232.28;4946838;28;20047;-84
2022/11/02 02:37:09;;;;;;;4.45;1.25;;;;;;;14.67;38.16;101231.41;4953142;28;20043;-84
2022/11/02 02:39:43;;;;;;;3.63;1.38;;;;;;;14.66;38.06;101235.16;4933838;29;20043;-84
2022/11/02 02:42:19;;;;;;;3.03;1.20;;;;;;;14.66;38.31;101232.41;4957285;28;20136;-83
2022/11/02 02:44:54;;;;;;;2.85;1.00;;;;;;;14.66;38.18;101237.06;4932253;29;20058;-84
2022/11/02 02:47:27;;;;;;;3.80;1.10;;;;;;;14.65;38.13;101235.31;4947309;28;20051;-84
2022/11/02 02:50:05;;;;;;;2.83;1.13;;;;;;;14.65;37.99;101233.44;4949656;28;20123;-84
2022/11/02 02:52:36;;;;;;;3.38;1.08;;;;;;;14.63;37.67;101237.34;4938693;29;20066;-84
2022/11/02 02:55:07;;;;;;;4.15;1.58;;;;;;;14.62;37.80;101239.22;4932753;29;20043;-84
2022/11/02 02:57:36;;;;;;;4.85;1.30;;;;;;;14.60;38.11;101246.78;4941492;28;20039;-84
2022/11/02 03:00:13;;;;;;;4.15;1.65;;;;;;;14.62;37.67;101238.38;4931121;29;20047;-84
2022/11/02 03:02:59;;;;;;;4.38;1.25;;;;;;;14.58;37.96;101235.06;4939339;28;20051;-84
2022/11/02 03:05:31;;;;;;;5.70;1.40;;;;;;;14.56;38.14;101233.47;4923296;29;20047;-84
2022/11/02 03:08:05;;;;;;;4.20;1.20;;;;;;;14.55;38.29;101245.50;4937387;29;20054;-84
2022/11/02 03:10:42;;;;;;;3.22;1.13;;;;;;;14.54;37.73;101247.38;4946392;28;20050;-84
2022/11/02 03:13:22;;;;;;;3.72;1.10;;;;;;;14.53;37.64;101245.66;4935051;29;20058;-84
2022/11/02 03:15:58;;;;;;;4.95;1.45;;;;;;;14.52;38.17;101232.88;4936941;28;20521;-84
2022/11/02 03:18:36;;;;;;;3.55;1.02;;;;;;;14.51;38.05;101249.59;4928266;29;20040;-84
2022/11/02 03:21:12;;;;;;;3.72;1.30;;;;;;;14.49;37.82;101240.59;4933944;29;20074;-84
2022/11/02 03:23:47;;;;;;;3.85;1.02;;;;;;;14.46;37.54;101247.25;4949922;28;20051;-84
2022/11/02 03:26:23;;;;;;;2.80;1.02;;;;;;;14.46;37.60;101251.88;4935112;29;20123;-84
2022/11/02 03:29:01;;;;;;;3.92;1.48;;;;;;;14.44;37.57;101259.41;4942366;28;20135;-84
2022/11/02 03:31:36;;;;;;;2.53;1.15;;;;;;;14.41;37.84;101265.25;4934955;29;20506;-83
2022/11/02 03:34:14;;;;;;;2.88;1.15;;;;;;;14.39;37.57;101280.03;4931914;29;20096;-84
2022/11/02 03:36:48;;;;;;;3.95;1.27;;;;;;;14.38;37.98;101266.41;4926825;29;20064;-84
2022/11/02 03:39:20;;;;;;;3.25;1.20;;;;;;;14.36;37.65;101268.44;4935553;29;20055;-84
2022/11/02 03:41:50;;;;;;;2.38;1.00;;;;;;;14.32;38.12;101273.38;4929209;29;20047;-85
2022/11/02 03:44:23;;;;;;;4.07;1.27;;;;;;;14.33;37.70;101277.88;4942151;29;20493;-83
2022/11/02 03:46:59;;;;;;;4.22;1.30;;;;;;;14.34;38.11;101278.75;4935748;28;20067;-84
2022/11/02 03:49:35;;;;;;;2.88;1.10;;;;;;;14.31;37.95;101277.16;4941269;28;20044;-83
2022/11/02 03:52:08;;;;;;;3.40;1.20;;;;;;;14.32;38.33;101278.88;4934000;29;20070;-84
2022/11/02 03:54:44;;;;;;;4.15;1.05;;;;;;;14.33;37.75;101280.63;4928334;29;20127;-83
2022/11/02 03:57:21;;;;;;;5.47;1.25;;;;;;;14.33;37.86;101290.78;4940006;29;20052;-84
2022/11/02 03:59:50;;;;;;;4.40;1.40;;;;;;;14.30;37.78;101291.94;4928262;29;20048;-84
2022/11/02 04:02:19;;;;;;;4.53;1.10;;;;;;;14.31;37.63;101292.78;4945737;29;20547;-83
2022/11/02 04:04:50;;;;;;;3.17;1.50;;;;;;;14.30;38.06;101296.56;4936782;29;21391;-84
2022/11/02 04:07:24;;;;;;;3.53;1.15;;;;;;;14.30;37.34;101302.06;4944056;29;20463;-85
2022/11/02 04:09:52;;;;;;;4.55;1.25;;;;;;;14.24;37.59;101305.41;4950456;29;20438;-83
2022/11/02 04:15:08;;;;;;;2.97;1.05;;;;;;;14.25;37.75;101324.56;4950742;29;20058;-83
2022/11/02 04:20:24;;;;;;;3.40;1.27;;;;;;;14.21;37.88;101323.09;4944729;29;20052;-84
2022/11/02 04:25:42;;;;;;;2.58;1.10;;;;;;;14.21;37.89;101338.75;4961921;28;20141;-83
2022/11/02 04:28:13;;;;;;;3.83;0.88;;;;;;;14.18;38.03;101333.53;4934950;28;20059;-84
2022/11/02 04:30:57;;;;;;;2.95;1.13;;;;;;;14.16;37.77;101339.19;4938238;28;20039;-83
2022/11/02 04:33:32;;;;;;;4.45;1.05;;;;;;;14.20;37.95;101339.75;4938837;29;20061;-83
2022/11/02 04:36:07;;;;;;;3.15;1.20;;;;;;;14.19;37.86;101338.88;4951767;28;20151;-83
2022/11/02 04:38:41;;;;;;;4.65;1.40;;;;;;;14.17;37.90;101340.94;4947751;28;20087;-83
2022/11/02 04:41:41;;;;;;;3.35;1.20;;;;;;;14.17;38.14;101340.94;4956652;28;20066;-85
2022/11/02 04:44:28;;;;;;;3.15;1.05;;;;;;;14.14;37.75;101357.72;4943388;29;20054;-84
2022/11/02 04:47:12;;;;;;;3.38;1.27;;;;;;;14.13;37.82;101361.50;4938824;29;20411;-84
2022/11/02 04:49:42;;;;;;;4.65;1.67;;;;;;;14.16;37.79;101363.97;4939016;29;20051;-84
2022/11/02 04:52:14;;;;;;;4.47;1.38;;;;;;;14.13;37.79;101368.88;4956958;28;20094;-84
2022/11/02 04:54:48;;;;;;;4.55;1.30;;;;;;;14.11;37.95;101366.25;4931938;29;20396;-84
2022/11/02 04:57:17;;;;;;;4.57;1.40;;;;;;;14.12;37.96;101378.16;4946608;28;20055;-84
2022/11/02 04:59:45;;;;;;;3.83;1.23;;;;;;;14.11;38.00;101373.66;4948567;28;20058;-83
2022/11/02 05:02:13;;;;;;;3.03;1.30;;;;;;;14.09;38.24;101370.19;4959135;28;20048;-84
2022/11/02 05:04:44;;;;;;;3.70;1.10;;;;;;;14.09;37.93;101386.72;4946242;28;20044;-84
2022/11/02 05:07:14;;;;;;;3.53;1.30;;;;;;;14.06;38.29;101382.34;4938214;29;20055;-84
2022/11/02 05:09:42;;;;;;;3.00;1.17;;;;;;;14.05;38.33;101383.38;4952621;28;20100;-83
2022/11/02 05:12:12;;;;;;;3.53;1.17;;;;;;;14.04;37.97;101387.13;4950160;28;20050;-84
2022/11/02 05:14:40;;;;;;;3.97;1.20;;;;;;;14.03;37.93;101382.63;4936901;29;20530;-84
2022/11/02 05:17:08;;;;;;;3.03;1.15;;;;;;;14.01;38.30;101387.44;4950287;28;20039;-83
2022/11/02 05:19:37;;;;;;;3.45;1.20;;;;;;;13.99;38.20;101398.59;4947264;28;20475;-83
2022/11/02 05:22:07;;;;;;;5.32;1.50;;;;;;;14.00;37.85;101382.94;4930561;29;20052;-84
2022/11/02 05:24:35;;;;;;;3.95;1.10;;;;;;;13.97;38.17;101385.97;4936829;29;20119;-84
2022/11/02 05:27:04;;;;;;;2.90;1.23;;;;;;;13.96;38.26;101387.84;4943174;28;20135;-84
2022/11/02 05:29:35;;;;;;;5.20;1.55;;;;;;;13.96;37.94;101396.09;4940558;28;20334;-84
2022/11/02 05:32:04;;;;;;;4.72;1.45;;;;;;;13.96;38.33;101397.97;4951317;28;20040;-84
2022/11/02 05:34:32;;;;;;;6.28;1.45;;;;;;;13.94;37.86;101397.28;4935787;29;20067;-84
2022/11/02 05:37:00;;;;;;;3.83;1.05;;;;;;;13.93;38.00;101401.91;4957547;28;20194;-83
2022/11/02 05:39:30;;;;;;;4.28;1.40;;;;;;;13.94;37.76;101402.78;4935925;29;20068;-84
2022/11/02 05:41:58;;;;;;;4.20;1.25;;;;;;;13.92;38.45;101408.44;4955104;28;20084;-83
2022/11/02 05:44:26;;;;;;;3.63;1.30;;;;;;;13.91;38.00;101401.19;4941993;29;20131;-86
2022/11/02 05:46:54;;;;;;;3.10;1.15;;;;;;;13.92;38.27;101411.19;4942369;29;20058;-82
2022/11/02 05:49:22;;;;;;;2.80;1.02;;;;;;;13.91;37.87;101408.56;4945888;29;20062;-84
2022/11/02 05:51:49;;;;;;;3.65;1.30;;;;;;;13.90;38.13;101410.44;4943234;29;20047;-83
2022/11/02 05:54:17;;;;;;;3.60;1.75;;;;;;;13.90;37.69;101426.97;4941424;29;20051;-84
2022/11/02 05:56:47;;;;;;;4.32;1.40;;;;;;;13.90;38.12;101426.09;4932109;29;20107;-84
2022/11/02 05:59:14;;;;;;;4.38;1.25;;;;;;;13.87;37.79;101435.47;4935072;29;20055;-84
2022/11/02 06:01:42;;;;;;;3.47;1.20;;;;;;;13.87;38.11;101434.59;4938467;29;20060;-84
2022/11/02 06:04:10;;;;;;;3.63;1.45;;;;;;;13.86;38.21;101427.41;4950041;28;20058;-84
2022/11/02 06:06:38;;;;;;;3.17;1.20;;;;;;;13.85;38.02;101439.41;4949461;28;20110;-84
2022/11/02 06:09:06;;;;;;;3.05;1.20;;;;;;;13.83;38.05;101447.78;4932111;29;20052;-83
2022/11/02 06:11:34;;;;;;;4.38;1.00;;;;;;;13.81;38.16;101437.94;4940137;29;20099;-85
2022/11/02 06:14:04;;;;;;;4.40;1.05;;;;;;;13.82;37.74;101445.19;4942168;29;20178;-82
2022/11/02 06:16:32;;;;;;;5.25;1.60;;;;;;;13.79;37.56;101445.44;4945832;29;20058;-83
2022/11/02 06:19:00;;;;;;;3.85;1.25;;;;;;;13.77;37.56;101455.75;4945638;29;20594;-84
2022/11/02 06:21:29;;;;;;;3.90;1.10;;;;;;;13.75;37.77;101444.88;4945534;29;20111;-84
2022/11/02 06:23:58;;;;;;;2.08;0.93;;;;;;;13.75;37.61;101455.00;4943743;29;20103;-85
2022/11/02 06:26:26;;;;;;;5.05;1.40;;;;;;;13.72;37.94;101450.66;4936387;28;20043;-84
2022/11/02 06:28:54;;;;;;;4.22;1.23;;;;;;;13.71;37.80;101457.16;4951414;28;20052;-84
2022/11/02 06:31:24;;;;;;;3.60;1.17;;;;;;;13.72;37.56;101463.53;4933038;29;20048;-85
2022/11/02 06:33:52;;;;;;;3.85;1.40;;;;;;;13.68;37.62;101470.34;4945763;29;20128;-85
2022/11/02 06:36:20;;;;;;;4.57;1.00;;;;;;;13.66;37.69;101464.97;4950493;28;20049;-84
2022/11/02 06:38:48;;;;;;;3.42;1.13;;;;;;;13.65;37.91;101473.38;4963732;29;20083;-84
2022/11/02 06:41:16;;;;;;;4.15;1.23;;;;;;;13.65;38.00;101481.63;4954787;29;20103;-84
2022/11/02 06:43:44;;;;;;;4.50;1.13;;;;;;;13.63;37.80;101482.63;4949627;29;20067;-85
2022/11/02 06:46:12;;;;;;;4.40;1.48;;;;;;;13.62;37.93;101482.75;4948069;29;20507;-85
2022/11/02 06:48:42;;;;;;;2.60;1.27;;;;;;;13.63;38.15;101501.88;4938096;29;20068;-84
2022/11/02 06:51:10;;;;;;;3.45;1.25;;;;;;;13.61;37.88;101500.28;4939736;29;20463;-85
2022/11/02 06:53:38;;;;;;;4.00;1.35;;;;;;;13.59;38.20;101503.19;4941991;28;20055;-85
2022/11/02 06:56:07;;;;;;;4.15;1.40;;;;;;;13.59;38.35;101514.19;4946697;28;20399;-84
2022/11/02 06:58:34;;;;;;;3.10;1.20;;;;;;;13.58;38.36;101522.56;4928758;29;20051;-84
2022/11/02 07:05:56;;;;;;;3.78;1.52;;;;;;;13.52;38.16;101537.72;4870478;29;20052;-84
2022/11/02 08:29:35;;;;;;;4.88;1.10;;;;;;;13.65;38.85;101680.53;4900099;23;20051;-69
2022/11/02 08:32:03;;;;;;;4.47;1.27;;;;;;;13.72;39.13;101678.09;4910381;28;20044;-72
2022/11/02 08:34:31;;;;;;;5.57;1.30;;;;;;;13.79;39.23;101682.06;4903566;29;20056;-73
2022/11/02 08:36:59;;;;;;;4.72;1.70;;;;;;;13.87;38.74;101679.50;4915147;29;20467;-69
2022/11/02 08:39:27;;;;;;;4.65;1.10;;;;;;;13.95;38.90;101682.44;4913471;29;20055;-68
2022/11/02 08:41:55;;;;;;;3.80;1.30;;;;;;;14.04;39.18;101691.75;4910036;29;20048;-71
2022/11/02 08:44:23;;;;;;;4.65;1.92;;;;;;;14.12;39.18;101691.94;4915312;29;20115;-68
2022/11/02 08:46:52;;;;;;;3.83;1.10;;;;;;;14.22;38.64;101685.47;4910096;29;20534;-70
2022/11/02 08:49:25;;;;;;;6.15;1.23;;;;;;;14.30;38.91;101687.53;4918180;29;20048;-70
2022/11/02 08:51:53;;;;;;;5.03;1.20;;;;;;;14.38;38.77;101687.72;4913787;29;20588;-70
2022/11/02 08:54:21;;;;;;;5.78;1.58;;;;;;;14.50;38.81;101691.28;4914334;29;20107;-70
2022/11/02 08:56:49;;;;;;;3.78;1.10;;;;;;;14.57;38.09;101697.97;4914293;29;20067;-70
2022/11/02 08:59:16;;;;;;;5.13;1.30;;;;;;;14.64;38.51;101701.91;4916744;29;20087;-71
2022/11/02 09:01:44;;;;;;;4.68;1.30;;;;;;;14.71;38.30;101703.09;4914333;29;20099;-71
2022/11/02 09:04:14;;;;;;;3.90;1.40;;;;;;;14.79;38.39;101705.13;4914059;29;20084;-71
2022/11/02 09:06:41;;;;;;;3.33;1.00;;;;;;;14.85;38.38;101712.84;4908806;29;20052;-71
2022/11/02 09:09:10;;;;;;;6.85;1.55;;;;;;;14.91;38.31;101706.78;4906483;29;20127;-71
2022/11/02 09:11:38;;;;;;;3.15;1.20;;;;;;;14.97;37.78;101712.56;4914112;29;20127;-71
2022/11/02 09:14:06;;;;;;;3.28;1.25;;;;;;;15.04;38.30;101712.88;4914689;29;20047;-71
2022/11/02 09:16:34;;;;;;;3.00;1.20;;;;;;;15.13;38.27;101721.16;4912602;29;20063;-71
2022/11/02 09:19:08;;;;;;;3.72;1.25;;;;;;;15.21;38.18;101719.56;4914897;29;20048;-71
2022/11/02 09:21:37;;;;;;;3.83;1.13;;;;;;;15.30;38.00;101722.34;4911577;29;20040;-71
2022/11/02 09:24:06;;;;;;;5.30;1.27;;;;;;;15.38;37.27;101732.69;4913985;29;20321;-68
2022/11/02 09:26:33;;;;;;;5.90;1.27;;;;;;;15.45;37.24;101720.03;4913316;29;20043;-68
2022/11/02 09:29:02;;;;;;;3.97;1.30;;;;;;;15.55;37.51;101731.97;4932103;29;20079;-68
2022/11/02 09:31:30;;;;;;;5.40;1.15;;;;;;;15.62;36.91;101732.25;4921347;29;20470;-69
2022/11/02 09:33:58;;;;;;;6.63;1.30;;;;;;;15.66;37.14;101739.22;4919988;29;20047;-68
2022/11/02 09:36:25;;;;;;;5.35;1.30;;;;;;;15.70;37.07;101733.25;4930149;29;20082;-68
2022/11/02 09:38:55;;;;;;;5.30;1.38;;;;;;;15.79;36.41;101742.53;4913999;29;20079;-69
2022/11/02 09:41:30;;;;;;;4.53;1.42;;;;;;;15.84;36.06;101757.63;4913910;29;20044;-68
2022/11/02 09:44:06;;;;;;;5.10;1.30;;;;;;;15.88;36.32;101756.34;4894932;29;20048;-68
2022/11/02 09:46:39;;;;;;;5.10;1.23;;;;;;;15.94;35.86;101740.19;4894527;29;20582;-68
2022/11/02 09:49:14;;;;;;;5.13;1.40;;;;;;;15.98;36.08;101733.38;4900798;29;20084;-68
2022/11/02 09:51:46;;;;;;;3.53;1.20;;;;;;;16.01;35.94;101731.16;4913809;29;20433;-68
2022/11/02 09:54:19;;;;;;;8.07;1.40;;;;;;;16.05;35.61;101742.78;4914327;29;20048;-68
2022/11/02 09:56:49;;;;;;;4.80;1.25;;;;;;;16.06;36.12;101737.13;4928267;29;20058;-68
2022/11/02 09:59:19;;;;;;;4.72;1.20;;;;;;;16.11;36.35;101737.53;4924076;29;20502;-68
2022/11/02 10:01:55;;;;;;;4.40;1.02;;;;;;;16.18;35.31;101740.59;4912258;29;20059;-68
2022/11/02 10:04:53;;;;;;;3.65;1.20;;;;;;;16.22;35.60;101737.41;4914081;29;20048;-68
2022/11/02 10:07:32;;;;;;;3.55;1.00;;;;;;;16.25;34.72;101742.59;4918308;29;20526;-68
2022/11/02 10:10:08;;;;;;;3.85;1.10;;;;;;;16.31;35.03;101748.56;4914399;29;20123;-68
2022/11/02 10:12:45;;;;;;;4.22;1.30;;;;;;;16.34;35.35;101746.34;4912943;29;20521;-68
2022/11/02 10:15:18;;;;;;;4.45;1.30;;;;;;;16.39;35.00;101740.41;4913177;29;20048;-68
2022/11/02 10:17:52;;;;;;;4.47;1.63;;;;;;;16.41;35.28;101753.06;4912895;29;20565;-69
2022/11/02 10:20:25;;;;;;;5.53;1.50;;;;;;;16.47;34.36;101741.38;4913523;29;20126;-69
2022/11/02 10:22:58;;;;;;;5.75;1.20;;;;;;;16.50;34.91;101740.19;4913130;29;20475;-68
2022/11/02 10:25:27;;;;;;;5.10;1.48;;;;;;;16.51;34.84;101741.94;4913680;29;20052;-67
2022/11/02 10:28:03;;;;;;;2.95;0.95;;;;;;;16.56;34.52;101747.91;4918839;29;20039;-68
2022/11/02 10:30:32;;;;;;;3.78;1.25;;;;;;;16.57;34.59;101750.50;4919640;29;20048;-67
2022/11/02 10:33:00;;;;;;;3.85;1.25;;;;;;;16.59;34.99;101745.69;4912554;29;20040;-68
2022/11/02 10:35:36;;;;;;;6.38;1.38;;;;;;;16.65;33.89;101746.97;4911594;29;20048;-69
2022/11/02 10:38:38;;;;;;;3.33;1.20;;;;;;;16.68;34.21;101745.78;4912848;29;20790;-69
2022/11/02 10:41:20;;;;;;;3.90;1.35;;;;;;;16.72;33.78;101750.88;4894207;29;20128;-69
2022/11/02 10:44:03;;;;;;;4.85;1.30;;;;;;;16.73;33.70;101755.38;4894422;29;20048;-68
2022/11/02 10:46:45;;;;;;;2.95;1.20;;;;;;;16.78;33.37;101752.16;4893582;29;20062;-69
2022/11/02 10:49:26;;;;;;;4.03;1.08;;;;;;;16.80;34.09;101759.28;4912159;29;20052;-68
2022/11/02 10:51:54;;;;;;;7.70;1.60;;;;;;;16.82;34.23;101753.59;4912657;29;20058;-68
2022/11/02 10:54:21;;;;;;;4.82;1.17;;;;;;;16.86;34.11;101749.47;4912654;29;20424;-68
2022/11/02 10:57:11;;;;;;;3.53;1.17;;;;;;;16.91;33.35;101760.94;4911786;29;20056;-68
2022/11/02 10:59:39;;;;;;;5.22;1.20;;;;;;;16.92;33.71;101754.38;4921039;29;20528;-68
2022/11/02 11:02:12;;;;;;;3.67;1.30;;;;;;;16.97;32.67;101760.38;4912726;29;20108;-68
2022/11/02 11:04:40;;;;;;;;;;;;;;;16.69;34.00;101753.94;4913109;29;20056;-68
2022/11/02 11:07:14;;;;;;;2.85;1.20;;;;;;;16.97;33.26;101757.63;4912333;29;19926;-69
2022/11/02 11:09:48;;;;;;;2.78;0.90;;;;;;;17.02;32.53;101766.31;4911543;29;20048;-68
2022/11/02 11:12:21;;;;;;;3.05;1.10;;;;;;;17.05;32.91;101754.06;4911662;29;20458;-68
2022/11/02 11:14:52;;;;;;;4.90;1.08;;;;;;;17.07;32.57;101754.78;4912553;29;20055;-69
2022/11/02 11:17:41;;;;;;;3.80;1.20;;;;;;;17.07;33.05;101761.19;4911343;29;20075;-68
2022/11/02 11:20:35;;;;;;;5.35;1.40;;;;;;;17.14;32.96;101764.22;4913199;29;20122;-69
2022/11/02 11:23:18;;;;;;;4.22;1.20;;;;;;;17.17;32.73;101773.03;4911993;29;20047;-68
2022/11/02 11:25:57;;;;;;;4.35;1.02;;;;;;;17.21;32.23;101781.91;4912849;29;20536;-69
2022/11/02 11:28:30;;;;;;;4.10;1.20;;;;;;;17.23;32.33;101780.75;4931052;29;20052;-68
2022/11/02 11:31:10;;;;;;;5.15;1.42;;;;;;;17.26;32.00;101776.78;4927558;29;20115;-68
2022/11/02 11:33:48;;;;;;;4.35;1.25;;;;;;;17.31;32.14;101763.38;4911985;29;20052;-68
2022/11/02 11:36:25;;;;;;;3.75;1.02;;;;;;;17.34;31.77;101760.25;4908838;29;20044;-68
2022/11/02 11:39:00;;;;;;;3.37;1.17;;;;;;;17.32;32.01;101760.41;4912944;29;20071;-69
2022/11/02 11:41:29;;;;;;;4.78;1.30;;;;;;;17.35;32.39;101760.09;4894166;29;20056;-68
2022/11/02 11:44:00;;;;;;;3.08;1.05;;;;;;;17.37;32.14;101763.59;4912806;29;20449;-68
2022/11/02 11:46:40;;;;;;;4.18;1.10;;;;;;;17.39;31.74;101755.16;4910024;29;20123;-68
2022/11/02 11:49:21;;;;;;;4.45;1.10;;;;;;;17.38;31.83;101757.03;4910500;29;20127;-69
2022/11/02 11:52:04;;;;;;;3.42;1.10;;;;;;;17.37;31.95;101749.75;4911339;29;20083;-68
2022/11/02 11:54:32;;;;;;;4.78;1.23;;;;;;;17.40;31.87;101757.72;4912022;29;20528;-68
2022/11/02 11:57:22;;;;;;;3.17;1.00;;;;;;;17.39;31.32;101758.78;4911589;29;20498;-68
2022/11/02 11:59:54;;;;;;;3.45;1.25;;;;;;;17.43;32.04;101755.69;4912343;29;20048;-67
2022/11/02 12:02:24;;;;;;;3.60;1.10;;;;;;;17.40;31.73;101751.34;4894613;29;20480;-68
2022/11/02 12:04:59;;;;;;;4.40;1.08;;;;;;;17.46;31.14;101758.16;4912283;29;20391;-68
2022/11/02 12:08:04;;;;;;;3.75;0.85;;;;;;;17.45;31.03;101742.56;4911555;29;20072;-68
2022/11/02 12:10:47;;;;;;;2.47;0.85;;;;;;;17.48;31.24;101745.03;4915965;29;20135;-68
2022/11/02 12:13:26;;;;;;;3.28;1.10;;;;;;;17.51;31.59;101750.22;4915506;29;20549;-68
2022/11/02 12:16:12;;;;;;;3.67;1.10;;;;;;;17.53;31.60;101746.28;4915768;29;20068;-68
2022/11/02 12:19:03;;;;;;;4.15;1.40;;;;;;;17.56;30.98;101740.44;4915977;29;20068;-68
2022/11/02 12:21:58;;;;;;;3.55;1.20;;;;;;;17.59;30.97;101745.63;4913536;29;20040;-68
2022/11/02 12:24:43;;;;;;;3.97;1.33;;;;;;;17.60;31.11;101741.84;4916075;29;20044;-69
2022/11/02 12:27:25;;;;;;;4.78;1.20;;;;;;;17.62;30.78;101737.03;4914597;29;20528;-69
2022/11/02 12:30:03;;;;;;;3.55;1.10;;;;;;;17.62;31.06;101744.47;4915721;29;20082;-68
2022/11/02 12:32:48;;;;;;;5.85;1.13;;;;;;;17.62;31.14;101752.75;4915077;29;20058;-68
2022/11/02 12:35:48;;;;;;;3.13;0.98;;;;;;;17.60;30.97;101741.84;4916018;29;20055;-68
2022/11/02 12:38:44;;;;;;;3.65;1.33;;;;;;;17.53;31.16;101734.34;4925746;29;20087;-69
2022/11/02 12:41:14;;;;;;;2.85;0.93;;;;;;;17.51;30.76;101745.56;4914495;29;20082;-70
2022/11/02 12:43:44;;;;;;;3.53;1.10;;;;;;;17.50;30.87;101738.28;4915308;29;20040;-67
2022/11/02 12:46:31;;;;;;;4.55;1.20;;;;;;;17.46;31.19;101736.88;4915651;29;20040;-68
2022/11/02 12:49:25;;;;;;;4.25;1.30;;;;;;;17.44;31.12;101735.28;4915822;29;20410;-68
2022/11/02 12:51:59;;;;;;;5.68;1.58;;;;;;;17.42;31.28;101732.66;4914521;29;20151;-68
2022/11/02 12:54:36;;;;;;;5.25;1.63;;;;;;;17.40;31.70;101738.34;4915310;29;20572;-68
2022/11/02 12:57:13;;;;;;;4.70;1.13;;;;;;;17.39;31.50;101721.94;4914781;29;20040;-70
2022/11/02 12:59:43;;;;;;;3.22;0.85;;;;;;;17.36;31.57;101722.25;4914084;29;20044;-70
2022/11/02 13:02:16;;;;;;;6.15;1.25;;;;;;;17.37;30.95;101726.75;4915266;29;20518;-70
2022/11/02 13:04:52;;;;;;;4.20;1.10;;;;;;;17.36;31.30;101727.78;4909051;29;20079;-71
2022/11/02 13:07:27;;;;;;;3.08;1.15;;;;;;;17.34;30.87;101725.16;4912408;29;20056;-71
2022/11/02 13:10:02;;;;;;;4.10;1.35;;;;;;;17.33;30.68;101714.25;4915007;29;20132;-70
2022/11/02 13:12:34;;;;;;;2.70;1.23;;;;;;;17.29;31.39;101708.19;4917026;29;20067;-70
2022/11/02 13:15:02;;;;;;;3.17;1.10;;;;;;;17.25;31.01;101700.34;4914876;29;20409;-70
2022/11/02 13:17:40;;;;;;;3.75;1.13;;;;;;;17.22;31.13;101708.97;4914006;29;20505;-70
2022/11/02 13:20:16;;;;;;;4.88;1.25;;;;;;;17.20;31.38;101699.94;4913414;29;20048;-70
2022/11/02 13:22:50;;;;;;;4.15;1.15;;;;;;;17.15;31.19;101697.66;4910938;29;20044;-70
2022/11/02 13:25:22;;;;;;;5.75;1.20;;;;;;;17.13;30.87;101696.06;4915156;29;20585;-69